Station: Leonora Airport

  Atmospheric Gas Attenuation - ITU Rec 676-11   --------------- db/100km ---------------
Date Time Temp RH % AH g/m3 Dew Point Wind Direction Speed kph Gust kph Barometer mB Rainfall Since 9am 24GHz 47GHz 76GHz 122GHz 134GHz 241GHz
07 06:40 6.4 85 6.34 4.1 15 17 1023.4 0 15.1 24.7 34.5 90.2 77.4 263.7
07 06:30 6.6 84 6.34 4.1 15 20 1023.3 0 15.1 24.6 34.5 89.9 77.2 263.0
07 06:20 6.9 83 6.39 4.2 15 19 1023.7 0 15.2 24.6 34.5 90.2 77.6 264.5
07 06:10 7.2 83 6.52 4.5 13 17 1023.6 0 15.4 24.8 34.9 91.2 79.0 269.5
07 06:00 7.3 82 6.48 4.4 17 22 1023.3 0 15.3 24.7 34.7 90.7 78.4 267.2
07 05:50 7.5 82 6.57 4.6 17 20 1023.5 0 15.5 24.8 35.0 91.4 79.4 270.8
07 05:40 7.5 81 6.49 4.5 19 20 1023.4 0 15.3 24.6 34.7 90.5 78.3 267.1
07 05:30 7.8 80 6.53 4.6 15 20 1023 0 15.4 24.6 34.7 90.6 78.5 267.8
07 05:20 7.8 81 6.61 4.7 15 17 1023.3 0 15.6 24.7 35.0 91.5 79.6 271.6
07 05:10 7.7 84 6.81 5.2 15 17 1023.3 0 16.0 25.1 35.9 93.8 82.4 281.4
07 05:00 6.2 84 6.18 3.7 9 11 1022.7 0 14.7 24.5 33.9 88.6 75.4 256.7
07 04:50 6.2 84 6.18 3.7 9 11 1023.3 0 14.7 24.5 34.0 88.7 75.4 256.8
07 04:40 5.8 83 5.95 3.1 9 11 1023.4 0 14.2 24.2 33.2 86.6 72.7 247.3
07 04:30 5.9 81 5.84 2.9 7 9 1023.2 0 14.0 24.0 32.7 85.3 71.1 241.8
07 04:20 6.2 80 5.89 3 7 9 1023.6 0 14.1 24.0 32.8 85.5 71.6 243.3
07 04:10 6.6 78 5.89 3 7 7 1023.5 0 14.1 23.9 32.6 85.1 71.2 242.0
07 04:00 7.1 75 5.85 3 7 9 1023.2 0 14.0 23.7 32.3 84.1 70.2 238.6
07 03:40 8.7 73 6.32 4.1 9 11 1023 0 14.9 24.0 33.5 87.3 74.8 255.1
07 03:10 9 71 6.26 4 11 13 1022.4 0 14.8 23.8 33.1 86.3 73.7 251.3
07 03:00 9.2 70 6.25 4 13 15 1022 0 14.8 23.7 32.9 86.0 73.4 250.1
07 02:50 9.2 69 6.16 3.8 11 13 1022.3 0 14.6 23.6 32.6 85.0 72.2 246.1
07 02:40 9.4 68 6.15 3.8 11 15 1022.3 0 14.5 23.5 32.5 84.7 71.9 245.0
07 02:30 9.7 67 6.18 3.9 15 20 1021.9 0 14.6 23.5 32.5 84.7 72.0 245.4
07 02:20 10 65 6.11 3.7 17 20 1022.2 0 14.4 23.3 32.1 83.7 70.9 241.4
07 02:10 10.2 65 6.19 3.9 15 19 1022.3 0 14.6 23.4 32.3 84.3 71.7 244.4
07 02:00 10.2 65 6.19 3.9 13 19 1021.9 0 14.6 23.4 32.3 84.3 71.7 244.3
07 01:50 10 66 6.2 4 11 13 1022.3 0 14.6 23.5 32.4 84.6 72.0 245.4
07 01:30 10.5 64 6.21 4 9 11 1022 0 14.6 23.3 32.3 84.1 71.7 244.3
07 01:20 10.8 62 6.13 3.8 9 11 1022.5 0 14.4 23.1 31.9 83.1 70.4 239.9
07 01:10 11.2 61 6.18 4 7 9 1022.5 0 14.5 23.1 31.9 83.2 70.7 240.9
07 01:00 11.5 60 6.2 4 9 13 1022.2 0 14.6 23.1 31.8 83.0 70.7 240.9
07 00:50 11.7 60 6.28 4.2 9 11 1022.6 0 14.7 23.2 32.1 83.7 71.5 243.8
07 00:40 12 60 6.4 4.5 9 11 1022.7 0 15.0 23.3 32.4 84.6 72.7 248.2
07 00:30 12.1 62 6.65 5 11 17 1022.5 0 15.5 23.6 33.3 87.0 75.8 258.9
07 00:20 12.2 63 6.8 5.4 11 13 1023 0 15.8 23.8 33.9 88.5 77.6 265.3
07 00:10 12.2 64 6.91 5.6 11 13 1023.1 0 16.0 24.0 34.3 89.6 79.0 270.3
07 00:00 12.2 65 7.01 5.8 9 13 1022.9 0 16.3 24.2 34.7 90.6 80.3 274.7
06 23:50 12.3 66 7.17 6.1 11 13 1023.3 0 16.6 24.4 35.3 92.2 82.3 281.6
06 23:40 12.3 67 7.28 6.4 9 9 1023.5 0 16.8 24.6 35.7 93.4 83.7 286.7
06 23:30 12.4 67 7.32 6.5 11 17 1023.2 0 16.9 24.6 35.8 93.6 84.1 288.0
06 23:20 12.4 68 7.43 6.7 11 13 1023.6 0 17.1 24.8 36.3 94.8 85.5 293.1
06 23:10 12.4 68 7.43 6.7 11 11 1023.7 0 17.1 24.8 36.3 94.9 85.5 293.1
06 23:00 12.5 68 7.48 6.8 11 15 1023.5 0 17.3 24.8 36.4 95.2 86.1 295.0
06 22:50 12.6 68 7.52 6.9 13 17 1023.7 0 17.3 24.9 36.5 95.6 86.5 296.5
06 22:40 12.7 67 7.46 6.7 11 13 1023.8 0 17.2 24.8 36.3 94.8 85.6 293.4
06 22:30 12.7 67 7.46 6.7 13 17 1023.5 0 17.2 24.8 36.2 94.8 85.6 293.3
06 22:20 12.8 66 7.39 6.6 13 15 1023.8 0 17.0 24.6 35.9 94.0 84.6 289.9
06 22:10 12.8 66 7.39 6.6 11 15 1023.8 0 17.0 24.6 35.9 94.0 84.6 289.9
06 22:00 12.9 66 7.44 6.7 15 22 1023.4 0 17.1 24.7 36.1 94.3 85.1 291.7
06 21:50 12.9 65 7.33 6.5 13 15 1023.8 0 16.9 24.5 35.7 93.2 83.7 286.8
06 21:40 13 65 7.37 6.6 13 15 1023.7 0 17.0 24.5 35.8 93.5 84.1 288.2
06 21:30 13.1 64 7.3 6.5 17 24 1023.3 0 16.8 24.4 35.4 92.6 83.1 284.6
06 21:20 13.1 63 7.19 6.2 15 20 1023.5 0 16.6 24.2 35.0 91.5 81.7 279.8
06 21:10 13.2 63 7.23 6.3 13 17 1023.4 0 16.7 24.3 35.1 91.8 82.1 281.2
06 21:00 13.2 63 7.23 6.3 17 22 1023 0 16.7 24.2 35.1 91.8 82.1 281.1
06 20:50 13.2 64 7.35 6.5 11 15 1023.2 0 16.9 24.4 35.6 93.0 83.6 286.5
06 20:40 13.1 65 7.42 6.7 19 20 1023.2 0 17.1 24.6 35.9 93.9 84.6 290.0
06 20:30 13.1 67 7.65 7.1 17 22 1022.7 0 17.6 24.9 36.8 96.2 87.5 300.3
06 20:20 13.1 67 7.65 7.1 17 20 1023.1 0 17.6 24.9 36.8 96.3 87.6 300.4
06 20:10 13.1 66 7.53 6.9 15 20 1023 0 17.3 24.7 36.3 95.0 86.0 294.9
06 20:00 13.1 67 7.65 7.1 15 24 1022.6 0 17.6 24.9 36.8 96.2 87.5 300.2
06 19:50 13.1 66 7.53 6.9 19 20 1022.8 0 17.3 24.7 36.3 95.0 86.0 294.9
06 19:40 13.3 64 7.39 6.6 19 20 1022.8 0 17.0 24.5 35.7 93.3 84.0 287.8
06 19:30 13.6 61 7.18 6.2 13 24 1022.3 0 16.6 24.0 34.7 90.7 81.0 277.3
06 19:20 13.7 60 7.11 6.1 17 24 1022.7 0 16.4 23.9 34.4 89.9 80.0 273.9
06 19:10 13.8 58 6.91 5.7 15 19 1022.7 0 16.0 23.6 33.6 87.8 77.4 264.8
06 19:00 14 56 6.75 5.4 17 24 1022.3 0 15.6 23.3 32.9 85.9 75.2 257.1
06 18:50 14 55 6.63 5.1 17 22 1022.7 0 15.4 23.1 32.5 84.8 73.7 252.0
06 18:40 14.1 54 6.55 4.9 20 24 1022.7 0 15.2 23.0 32.1 83.9 72.7 248.2
06 18:30 14.2 54 6.59 5 15 24 1022.2 0 15.3 23.0 32.2 84.1 73.0 249.5
06 18:20 14.2 54 6.59 5 17 22 1022.6 0 15.3 23.0 32.2 84.1 73.1 249.6
06 18:10 14.3 54 6.63 5.1 17 19 1022.6 0 15.4 23.0 32.4 84.4 73.5 251.0
06 18:00 14.3 53 6.51 4.9 15 19 1022.2 0 15.1 22.8 31.9 83.2 72.0 245.8
06 17:50 14.3 54 6.63 5.1 15 19 1022.7 0 15.4 23.0 32.4 84.4 73.5 251.1
06 17:40 14.3 54 6.63 5.1 13 17 1022.7 0 15.4 23.0 32.4 84.4 73.5 251.1
06 17:30 14.3 54 6.63 5.1 17 22 1022.2 0 15.4 23.0 32.3 84.4 73.4 250.9
06 17:20 14.4 54 6.68 5.2 17 20 1022.5 0 15.5 23.1 32.5 84.8 74.0 252.8
06 17:10 14.5 54 6.72 5.3 17 24 1022.6 0 15.6 23.1 32.6 85.1 74.4 254.3
06 17:00 14.7 54 6.8 5.5 20 30 1022.1 0 15.7 23.2 32.8 85.7 75.1 257.0
06 16:50 14.9 53 6.75 5.4 20 26 1022.5 0 15.6 23.1 32.6 85.0 74.4 254.3
06 16:40 15.1 51 6.58 5 19 20 1022.5 0 15.2 22.7 31.9 83.1 72.1 246.4
06 16:30 15.2 51 6.62 5.1 22 30 1022 0 15.3 22.8 31.9 83.3 72.5 247.7
06 16:20 15.3 51 6.66 5.2 19 22 1022.3 0 15.4 22.8 32.1 83.7 72.9 249.1
06 16:10 15.4 50 6.57 5 17 22 1022.2 0 15.2 22.6 31.7 82.7 71.7 245.0
06 16:00 15.3 50 6.53 5 22 32 1021.8 0 15.1 22.6 31.6 82.3 71.3 243.5
06 15:50 15.7 51 6.82 5.6 15 20 1022 0 15.7 22.9 32.5 84.8 74.4 254.6
06 15:40 15.5 51 6.74 5.4 19 20 1021.9 0 15.6 22.9 32.3 84.2 73.6 251.8
06 15:30 15.8 50 6.73 5.4 17 28 1021.4 0 15.5 22.8 32.1 83.7 73.2 250.4
06 15:20 15.9 48 6.5 4.9 19 20 1021.7 0 15.0 22.4 31.2 81.4 70.4 240.5
06 15:10 16.1 49 6.72 5.4 15 19 1021.7 0 15.5 22.7 31.9 83.4 72.8 249.1
06 15:00 15.9 48 6.5 4.9 17 28 1021.2 0 15.0 22.4 31.2 81.4 70.4 240.4
06 14:50 15.8 48 6.46 4.8 17 20 1021.5 0 15.0 22.4 31.1 81.1 70.0 239.0
06 14:40 15.8 48 6.46 4.8 20 24 1021.4 0 15.0 22.4 31.1 81.1 70.0 239.0
06 14:30 16.4 48 6.7 5.4 20 28 1020.9 0 15.4 22.5 31.7 82.8 72.3 247.2
06 14:20 15.6 51 6.78 5.5 15 20 1021.3 0 15.6 22.9 32.3 84.4 74.0 253.1
06 14:10 15.7 51 6.82 5.6 20 28 1021.3 0 15.7 22.9 32.4 84.7 74.4 254.5
06 14:00 15.7 52 6.96 5.9 20 32 1020.8 0 16.0 23.1 32.9 86.1 76.1 260.3
06 13:50 16.3 51 7.08 6.2 15 20 1021 0 16.2 23.1 33.1 86.6 76.9 263.5
06 13:40 15.7 52 6.96 5.9 22 24 1021.1 0 16.0 23.1 33.0 86.1 76.1 260.4
06 13:30 16.2 51 7.03 6.1 17 24 1020.6 0 16.1 23.1 33.0 86.2 76.4 261.7

Last Refresh: 07-Aug-2020 08:25:46

Most of the information presented on this site is sourced from the Bureau of Meteorology.  Copyright in all material sourced from the Bureau of Meteorology resides with the Commonwealth of Australia.